Flight Track Log - Related Links

Times and Time Zones

All times are in EDT time to prevent confusion due to time zone crossing. See the N588AC flight status page for this flight to view local times or setup timezone preferences in your user account.

Time Position Orientation Groundspeed Altitude Reporting Facility
EDT Latitude Longitude Course Direction KTS MPH feet Rate Location/Type
Tue 02:44:15 PM 37.1183 -76.5139 239° Southwest 98 113 900  Level Washington Center
Tue 02:44:55 PM 37.1036 -76.5450 239° Southwest 178 205 2,000 1,343 Climbing Washington Center
Tue 02:45:22 PM 37.0867 -76.5786 238° Southwest 232 267 2,400 1,400 Climbing Washington Center
Tue 02:45:55 PM 37.0739 -76.6097 243° Southwest 227 261 3,400 1,565 Climbing Washington Center
Tue 02:46:54 PM 37.1003 -76.6856 294° West 254 292 4,800 1,750 Climbing Washington Center
Tue 02:47:55 PM 37.1392 -76.7617 303° West 246 283 6,900 2,281 Climbing Washington Center
Tue 02:48:55 PM 37.1761 -76.8325 303° West 251 289 9,400 2,400 Climbing Washington Center
Tue 02:49:55 PM 37.2131 -76.8983 305° West 244 281 11,700 2,300 Climbing Washington Center
Tue 02:50:55 PM 37.2456 -76.9667 301° West 231 266 14,000 1,650 Climbing Washington Center
Tue 02:51:55 PM 37.2783 -77.0247 305° West 225 259 15,000 500 Climbing Washington Center
Tue 02:52:55 PM 37.3250 -77.1172 302° West 271 312 15,000  Level Washington Center
Tue 02:53:55 PM 37.3806 -77.1808 318° Northwest 294 338 15,000  Level Washington Center
Tue 02:54:55 PM 37.4400 -77.2503 317° Northwest 294 338 15,000 -50 Level Washington Center
Tue 02:55:55 PM 37.4956 -77.3142 299° West 283 326 14,900  Descending Washington Center
Tue 02:56:54 PM 37.5728 -77.3081 North 262 302 15,000 50 Climbing Washington Center
Tue 02:57:55 PM 37.6503 -77.2914 10° North 262 302 15,000  Level Washington Center
Tue 02:58:55 PM 37.7278 -77.2747 10° North 273 314 15,000  Level Washington Center
Tue 02:59:55 PM 37.8050 -77.2581 10° North 278 320 15,000  Level Washington Center
Tue 03:00:55 PM 37.8825 -77.2414 10° North 278 320 15,000  Level Washington Center
Tue 03:01:54 PM 37.9578 -77.2247 10° North 278 320 15,000  Level Washington Center
Tue 03:02:55 PM 38.0414 -77.2106 North 278 320 15,000  Level Washington Center
Tue 03:03:55 PM 38.1103 -77.1936 11° North 278 320 15,000 -350 Level Washington Center
Tue 03:04:55 PM 38.1964 -77.1664 14° North 278 320 14,300 -850 Descending Washington Center
Tue 03:05:55 PM 38.2639 -77.0939 40° Northeast 278 320 13,300 -1,000 Descending Washington Center
Tue 03:06:55 PM 38.3317 -77.0211 40° Northeast 301 346 12,300 -950 Descending Washington Center
Tue 03:07:55 PM 38.4011 -76.9481 39° Northeast 313 360 11,400 -650 Descending Washington Center
Tue 03:08:55 PM 38.4731 -76.8700 40° Northeast 326 375 11,000 -252 Descending Washington Center
Tue 03:09:54 PM 38.5383 -76.7994 40° Northeast 326 375 10,900 -750 Descending Washington Center
Tue 03:10:55 PM 38.6036 -76.7314 39° Northeast 314 361 9,500 -1,636 Descending Washington Center
Tue 03:11:55 PM 38.6625 -76.6658 41° Northeast 297 342 7,600 -1,600 Descending Washington Center
Tue 03:12:55 PM 38.7236 -76.6056 38° Northeast 282 325 6,300 -957 Descending Washington Center
Tue 03:13:29 PM 38.7667 -76.5667 35° Northeast 267 307 6,100 -695 Descending Potomac TRACON
Tue 03:14:30 PM 38.8333 -76.5333 21° North 261 300 5,200 -1,100 Descending Potomac TRACON
Tue 03:15:29 PM 38.8833 -76.4833 38° Northeast 248 285 3,900 -1,400 Descending Potomac TRACON
Tue 03:16:30 PM 38.9500 -76.4667 11° North 228 262 2,400 -893 Descending Potomac TRACON
Tue 03:17:30 PM 39.0000 -76.5000 333° Northwest 219 252 2,100 -150 Descending Potomac TRACON
Tue 03:18:30 PM 39.0500 -76.5333 333° Northwest 210 242 2,100 -53 Level Potomac TRACON
Tue 03:19:24 PM 39.1000 -76.5833 322° Northwest 203 234 2,000 -421 Descending Potomac TRACON
Tue 03:20:24 PM 39.1333 -76.6167 322° Northwest 158 182 1,300 -700 Descending Potomac TRACON
Tue 03:21:24 PM 39.1667 -76.6333 339° North 123 142 600 -700 Descending Potomac TRACON
Tue 03:23:00 PM 39.1667 -76.6667 339° North  Level FlightAware Approximate
Tue 03:30:00 PM 39.1754 -76.6683 339° North  Level Estimated
Tue 03:31:00 PM 39.1754 -76.6683 339° North  Level Estimated
Tue 03:32:00 PM 39.1754 -76.6683 339° North  Level Estimated
Tue 03:33:00 PM 39.1754 -76.6683 339° North  Level Estimated
Tue 03:34:00 PM 39.1754 -76.6683 339° North  Level Estimated

Login

Don't have an account? Register now (free) for customized features, flight alerts, and more!